createdAt,value
2017-12-10T00:01:36.722Z,5.17
2017-12-10T00:04:04.832Z,5.00
2017-12-10T00:06:33.265Z,4.60
2017-12-10T00:09:01.004Z,6.13
2017-12-10T00:11:29.076Z,4.03
2017-12-10T00:13:57.919Z,3.27
2017-12-10T00:16:26.322Z,6.40
2017-12-10T00:18:54.066Z,3.03
2017-12-10T00:21:21.864Z,6.73
2017-12-10T00:23:49.642Z,6.03
2017-12-10T00:26:17.371Z,6.00
2017-12-10T00:28:46.212Z,4.10
2017-12-10T00:31:14.301Z,6.00
2017-12-10T00:33:42.098Z,4.03
2017-12-10T00:36:09.877Z,5.33
2017-12-10T00:38:37.595Z,6.30
2017-12-10T00:41:05.331Z,5.27
2017-12-10T00:43:33.072Z,5.87
2017-12-10T00:46:00.826Z,4.00
2017-12-10T00:48:28.566Z,6.33
2017-12-10T00:50:57.000Z,3.50
2017-12-10T00:53:25.096Z,5.33
2017-12-10T00:55:55.320Z,4.43
2017-12-10T00:58:23.742Z,5.53
2017-12-10T01:00:52.270Z,5.13
2017-12-10T01:03:21.643Z,2.70
2017-12-10T01:05:50.479Z,3.00
2017-12-10T01:08:18.260Z,3.23
2017-12-10T01:10:46.205Z,5.63
2017-12-10T01:13:14.346Z,4.73
2017-12-10T01:15:42.130Z,3.47
2017-12-10T01:18:09.905Z,4.10
2017-12-10T01:20:38.365Z,5.47
2017-12-10T01:23:06.103Z,5.00
2017-12-10T01:25:33.842Z,3.33
2017-12-10T01:28:01.607Z,5.40
2017-12-10T01:30:29.365Z,2.97
2017-12-10T01:32:57.438Z,3.23
2017-12-10T01:35:25.960Z,5.23
2017-12-10T01:37:54.426Z,3.50
2017-12-10T01:40:22.946Z,4.20
2017-12-10T01:42:50.711Z,7.20
2017-12-10T01:45:18.619Z,2.40
2017-12-10T01:47:47.141Z,4.73
2017-12-10T01:50:15.488Z,4.30
2017-12-10T01:52:47.932Z,4.03
2017-12-10T01:55:16.182Z,6.87
2017-12-10T01:57:43.922Z,2.77
2017-12-10T02:00:12.473Z,3.47
2017-12-10T02:02:40.557Z,4.57
2017-12-10T02:05:08.334Z,3.87
2017-12-10T02:07:36.838Z,4.97
2017-12-10T02:10:04.607Z,4.30
2017-12-10T02:12:33.163Z,3.33
2017-12-10T02:15:00.938Z,3.77
2017-12-10T02:17:28.662Z,3.80
2017-12-10T02:19:56.438Z,3.47
2017-12-10T02:22:24.229Z,3.73
2017-12-10T02:24:52.833Z,3.70
2017-12-10T02:27:20.600Z,1.90
2017-12-10T02:29:48.359Z,4.33
2017-12-10T02:32:17.214Z,3.33
2017-12-10T02:34:45.040Z,4.00
2017-12-10T02:37:12.914Z,4.10
2017-12-10T02:39:40.649Z,1.93
2017-12-10T02:42:08.328Z,4.43
2017-12-10T02:44:36.037Z,4.77
2017-12-10T02:47:04.488Z,1.70
2017-12-10T02:49:32.419Z,4.07
2017-12-10T02:52:01.096Z,2.63
2017-12-10T02:54:28.812Z,1.97
2017-12-10T02:56:56.825Z,4.87
2017-12-10T02:59:24.509Z,4.43
2017-12-10T03:01:53.261Z,6.83
2017-12-10T03:04:21.716Z,5.77
2017-12-10T03:06:49.475Z,4.57
2017-12-10T03:09:17.163Z,5.23
2017-12-10T03:11:45.610Z,4.17
2017-12-10T03:14:13.352Z,6.07
2017-12-10T03:16:41.049Z,5.90
2017-12-10T03:19:08.794Z,5.37
2017-12-10T03:21:38.138Z,6.07
2017-12-10T03:24:06.613Z,6.07
2017-12-10T03:26:34.561Z,9.93
2017-12-10T03:29:03.244Z,6.80
2017-12-10T03:31:30.931Z,5.87
2017-12-10T03:33:58.589Z,4.77
2017-12-10T03:36:26.271Z,5.13
2017-12-10T03:38:54.708Z,6.20
2017-12-10T03:41:23.174Z,10.70
2017-12-10T03:43:50.880Z,10.10
2017-12-10T03:46:18.549Z,6.27
2017-12-10T03:48:46.555Z,7.50
2017-12-10T03:51:14.282Z,4.60
2017-12-10T03:53:41.950Z,5.97
2017-12-10T03:56:09.633Z,7.87
2017-12-10T03:58:37.318Z,6.40
2017-12-10T04:01:05.029Z,7.80
2017-12-10T04:03:32.705Z,7.10
2017-12-10T04:06:00.709Z,6.83
2017-12-10T04:08:28.728Z,6.53
2017-12-10T04:10:57.062Z,4.83
2017-12-10T04:13:24.897Z,5.87
2017-12-10T04:15:53.741Z,5.30
2017-12-10T04:18:21.437Z,7.47
2017-12-10T04:20:49.125Z,4.60
2017-12-10T04:23:17.148Z,4.97
2017-12-10T04:25:44.841Z,5.83
2017-12-10T04:28:12.507Z,6.53
2017-12-10T04:30:40.527Z,5.53
2017-12-10T04:33:08.210Z,7.73
2017-12-10T04:35:35.899Z,6.77
2017-12-10T04:38:03.597Z,5.80
2017-12-10T04:40:32.690Z,7.67
2017-12-10T04:43:01.142Z,7.07
2017-12-10T04:45:28.811Z,6.67
2017-12-10T04:47:56.590Z,7.73
2017-12-10T04:50:25.030Z,9.63
2017-12-10T04:52:52.839Z,9.27
2017-12-10T04:55:21.634Z,7.27
2017-12-10T04:57:50.488Z,6.37
2017-12-10T05:00:18.178Z,7.67
2017-12-10T05:02:46.637Z,8.00
2017-12-10T05:05:14.319Z,6.77
2017-12-10T05:07:43.235Z,7.57
2017-12-10T05:10:11.959Z,8.02
2017-12-10T05:12:39.629Z,6.83
2017-12-10T05:15:07.310Z,7.90
2017-12-10T05:17:36.424Z,9.43
2017-12-10T05:20:04.721Z,9.23
2017-12-10T05:22:34.300Z,6.13
2017-12-10T05:25:01.967Z,7.40
2017-12-10T05:27:29.854Z,7.13
2017-12-10T05:29:57.857Z,8.67
2017-12-10T05:32:26.821Z,7.13
2017-12-10T05:34:54.498Z,7.70
2017-12-10T05:37:22.507Z,7.70
2017-12-10T05:39:50.955Z,7.97
2017-12-10T05:42:19.936Z,8.43
2017-12-10T05:44:47.607Z,7.80
2017-12-10T05:47:15.639Z,6.17
2017-12-10T05:49:43.332Z,6.70
2017-12-10T05:52:11.004Z,9.20
2017-12-10T05:54:38.704Z,7.47
2017-12-10T05:57:06.555Z,8.07
2017-12-10T05:59:35.822Z,7.20
2017-12-10T06:02:04.736Z,9.37
2017-12-10T06:04:32.755Z,5.83
2017-12-10T06:07:00.611Z,7.93
2017-12-10T06:09:28.316Z,8.00
2017-12-10T06:11:56.021Z,7.27
2017-12-10T06:14:25.405Z,9.43
2017-12-10T06:16:53.491Z,11.23
2017-12-10T06:19:21.957Z,7.37
2017-12-10T06:21:50.413Z,7.10
2017-12-10T06:24:18.420Z,6.33
2017-12-10T06:26:46.910Z,5.90
2017-12-10T06:29:14.575Z,6.30
2017-12-10T06:31:42.601Z,8.23
2017-12-10T06:34:10.292Z,5.37
2017-12-10T06:36:38.745Z,6.43
2017-12-10T06:39:07.466Z,6.40
2017-12-10T06:41:35.152Z,6.90
2017-12-10T06:44:02.837Z,6.03
2017-12-10T06:46:30.537Z,7.60
2017-12-10T06:48:58.988Z,6.50
2017-12-10T06:51:26.737Z,6.87
2017-12-10T06:53:54.523Z,7.43
2017-12-10T06:56:22.202Z,7.20
2017-12-10T06:58:51.013Z,8.97
2017-12-10T07:01:18.740Z,5.07
2017-12-10T07:03:46.606Z,6.70
2017-12-10T07:06:14.639Z,8.03
2017-12-10T07:08:42.655Z,5.53
2017-12-10T07:11:11.086Z,3.63
2017-12-10T07:13:39.819Z,3.08
2017-12-10T07:16:07.759Z,6.62
2017-12-10T07:18:36.026Z,4.65
2017-12-10T07:21:03.984Z,2.62
2017-12-10T07:23:32.718Z,2.00
2017-12-10T07:26:00.668Z,2.33
2017-12-10T07:28:28.633Z,2.80
2017-12-10T07:30:56.595Z,8.02
2017-12-10T07:33:24.896Z,2.72
2017-12-10T07:35:52.874Z,8.27
2017-12-10T07:38:20.844Z,12.07
2017-12-10T07:40:49.120Z,0.65
2017-12-10T07:43:17.097Z,12.77
2017-12-10T07:45:45.041Z,5.37
2017-12-10T07:48:13.338Z,5.60
2017-12-10T07:50:41.303Z,9.98
2017-12-10T07:53:09.265Z,10.38
2017-12-10T07:55:37.567Z,6.62
2017-12-10T07:58:05.835Z,6.82
2017-12-10T08:00:33.806Z,10.25
2017-12-10T08:03:01.502Z,4.30
2017-12-10T08:05:29.189Z,12.37
2017-12-10T08:07:57.157Z,6.80
2017-12-10T08:10:25.399Z,7.80
2017-12-10T08:12:53.076Z,9.40
2017-12-10T08:15:20.764Z,3.97
2017-12-10T08:17:48.819Z,11.33
2017-12-10T08:20:17.116Z,10.57
2017-12-10T08:22:45.081Z,7.62
2017-12-10T08:25:12.782Z,3.57
2017-12-10T08:27:40.736Z,6.82
2017-12-10T08:30:09.784Z,2.33
2017-12-10T08:32:37.479Z,2.93
2017-12-10T08:35:05.738Z,3.92
2017-12-10T08:37:34.205Z,10.43
2017-12-10T08:40:02.488Z,4.00
2017-12-10T08:42:30.431Z,2.72
2017-12-10T08:44:58.446Z,2.62
2017-12-10T08:47:26.896Z,2.47
2017-12-10T08:49:55.207Z,3.93
2017-12-10T08:52:23.161Z,0.68
2017-12-10T08:54:51.608Z,2.90
2017-12-10T08:57:19.615Z,2.83
2017-12-10T08:59:48.062Z,3.97
2017-12-10T09:02:15.735Z,1.33
2017-12-10T09:04:43.755Z,0.57
2017-12-10T09:07:11.469Z,3.67
2017-12-10T09:09:40.252Z,4.70
2017-12-10T09:12:07.947Z,4.53
2017-12-10T09:14:35.635Z,3.23
2017-12-10T09:17:04.082Z,1.30
2017-12-10T09:19:31.787Z,3.93
2017-12-10T09:21:59.791Z,3.90
2017-12-10T09:24:28.576Z,3.13
2017-12-10T09:26:57.364Z,3.27
2017-12-10T09:29:26.377Z,6.63
2017-12-10T09:31:54.126Z,3.67
2017-12-10T09:34:22.982Z,4.20
2017-12-10T09:36:50.683Z,5.17
2017-12-10T09:39:18.347Z,3.80
2017-12-10T09:41:46.019Z,4.50
2017-12-10T09:44:14.474Z,4.47
2017-12-10T09:46:43.253Z,3.10
2017-12-10T09:49:11.700Z,5.20
2017-12-10T09:51:39.415Z,4.37
2017-12-10T09:54:07.079Z,2.00
2017-12-10T09:56:34.768Z,3.40
2017-12-10T09:59:02.477Z,1.70
2017-12-10T10:01:30.409Z,3.20
2017-12-10T10:03:58.301Z,3.83
2017-12-10T10:06:26.763Z,1.43
2017-12-10T10:08:54.744Z,2.03
2017-12-10T10:14:15.682Z,1.00
2017-12-10T10:16:44.129Z,1.67
2017-12-10T10:19:11.805Z,2.43
2017-12-10T10:21:39.478Z,1.33
2017-12-10T10:24:07.930Z,1.00
2017-12-10T10:26:37.556Z,2.60
2017-12-10T10:29:05.614Z,2.70
2017-12-10T10:31:33.308Z,2.70
2017-12-10T10:34:01.248Z,0.80
2017-12-10T10:36:28.937Z,0.83
2017-12-10T10:38:57.628Z,1.47
2017-12-10T10:41:25.971Z,2.87
2017-12-10T10:43:54.445Z,1.00
2017-12-10T10:46:22.143Z,0.80
2017-12-10T10:48:50.121Z,0.90
2017-12-10T10:51:18.082Z,2.72
2017-12-10T10:53:47.627Z,2.15
2017-12-10T10:56:15.607Z,2.12
2017-12-10T10:58:43.555Z,1.67
2017-12-10T11:01:11.842Z,0.50
2017-12-10T11:03:40.203Z,1.87
2017-12-10T11:06:08.157Z,0.82
2017-12-10T11:08:36.867Z,3.70
2017-12-10T11:11:04.836Z,2.17
2017-12-10T11:13:32.917Z,1.67
2017-12-10T11:16:01.538Z,1.10
2017-12-10T11:18:29.488Z,1.08
2017-12-10T11:20:57.428Z,1.70
2017-12-10T11:23:26.118Z,2.12
2017-12-10T11:25:54.057Z,1.15
2017-12-10T11:28:22.842Z,2.00
2017-12-10T11:30:51.519Z,1.77
2017-12-10T11:33:20.770Z,2.10
2017-12-10T11:35:49.077Z,1.17
2017-12-10T11:38:17.349Z,1.48
2017-12-10T11:40:45.309Z,7.20
2017-12-10T11:43:13.264Z,2.70
2017-12-10T11:45:41.545Z,1.92
2017-12-10T11:48:09.807Z,1.90
2017-12-10T11:50:38.198Z,3.35
2017-12-10T11:53:06.472Z,3.72
2017-12-10T11:55:34.409Z,6.22
2017-12-10T11:58:02.700Z,2.45
2017-12-10T12:00:31.429Z,4.22
2017-12-10T12:02:59.757Z,1.55
2017-12-10T12:05:27.678Z,2.12
2017-12-10T12:07:56.630Z,2.80
2017-12-10T12:10:24.917Z,1.55
2017-12-10T12:12:53.183Z,3.37
2017-12-10T12:15:21.988Z,1.12
2017-12-10T12:17:50.638Z,1.95
2017-12-10T12:20:18.576Z,1.87
2017-12-10T12:22:46.855Z,2.17
2017-12-10T12:25:15.144Z,0.85
2017-12-10T12:27:43.087Z,2.40
2017-12-10T12:30:11.047Z,1.58
2017-12-10T12:32:40.151Z,1.33
2017-12-10T12:35:08.081Z,2.22
2017-12-10T12:37:36.072Z,3.22
2017-12-10T12:40:04.044Z,1.23
2017-12-10T12:42:31.714Z,1.80
2017-12-10T12:45:00.005Z,1.67
2017-12-10T12:47:28.267Z,1.65
2017-12-10T12:49:57.593Z,1.27
2017-12-10T12:52:26.557Z,2.45
2017-12-10T12:54:54.836Z,1.00
2017-12-10T12:57:22.779Z,1.48
2017-12-10T12:59:50.469Z,3.30
2017-12-10T13:02:18.412Z,1.60
2017-12-10T13:04:46.460Z,0.83
2017-12-10T13:07:15.417Z,1.83
2017-12-10T13:09:44.525Z,1.30
2017-12-10T13:12:12.559Z,1.43
2017-12-10T13:14:40.242Z,1.00
2017-12-10T13:17:08.708Z,0.90
2017-12-10T13:19:36.728Z,1.00
2017-12-10T13:22:04.419Z,2.30
2017-12-10T13:24:32.433Z,2.03
2017-12-10T13:27:00.122Z,0.90
2017-12-10T13:29:28.788Z,2.27
2017-12-10T13:31:56.803Z,5.67
2017-12-10T13:34:24.490Z,4.40
2017-12-10T13:36:52.951Z,2.53
2017-12-10T13:39:20.903Z,1.58
2017-12-10T13:41:48.596Z,1.07
2017-12-10T13:44:17.110Z,0.53
2017-12-10T13:46:45.161Z,1.37
2017-12-10T13:49:13.936Z,2.43
2017-12-10T13:51:42.226Z,1.40
2017-12-10T13:54:10.026Z,2.53
2017-12-10T13:56:37.804Z,3.23
2017-12-10T13:59:06.147Z,1.93
2017-12-10T14:01:33.863Z,1.67
2017-12-10T14:04:01.582Z,1.60
2017-12-10T14:06:29.312Z,2.63
2017-12-10T14:08:57.289Z,3.27
2017-12-10T14:11:25.027Z,3.00
2017-12-10T14:13:54.544Z,6.77
2017-12-10T14:16:22.269Z,2.17
2017-12-10T14:18:50.278Z,2.33
2017-12-10T14:21:17.951Z,1.60
2017-12-10T14:23:45.665Z,3.57
2017-12-10T14:26:14.039Z,5.03
2017-12-10T14:28:42.055Z,4.90
2017-12-10T14:31:10.086Z,4.77
2017-12-10T14:33:38.108Z,2.63
2017-12-10T14:36:06.168Z,5.37
2017-12-10T14:38:34.187Z,2.00
2017-12-10T14:41:01.913Z,2.17
2017-12-10T14:43:29.921Z,1.47
2017-12-10T14:45:58.264Z,2.17
2017-12-10T14:48:26.944Z,2.33
2017-12-10T14:50:54.675Z,3.23
2017-12-10T14:53:22.374Z,3.67
2017-12-10T14:55:50.086Z,2.63
2017-12-10T14:58:18.528Z,3.50
2017-12-10T15:00:46.559Z,3.03
2017-12-10T15:03:14.558Z,3.80
2017-12-10T15:05:42.258Z,2.13
2017-12-10T15:08:10.706Z,3.87
2017-12-10T15:10:38.726Z,2.97
2017-12-10T15:13:06.453Z,2.47
2017-12-10T15:15:34.589Z,3.07
2017-12-10T15:18:02.279Z,2.63
2017-12-10T15:20:30.362Z,2.80
2017-12-10T15:22:58.243Z,2.87
2017-12-10T15:25:27.038Z,2.47
2017-12-10T15:27:55.077Z,3.97
2017-12-10T15:30:22.758Z,3.03
2017-12-10T15:32:51.550Z,2.50
2017-12-10T15:35:19.991Z,2.43
2017-12-10T15:37:47.996Z,2.93
2017-12-10T15:40:16.448Z,3.17
2017-12-10T15:42:44.138Z,4.03
2017-12-10T15:45:12.575Z,2.20
2017-12-10T15:47:40.289Z,1.80
2017-12-10T15:50:07.980Z,5.00
2017-12-10T15:52:35.660Z,2.70
2017-12-10T15:55:03.379Z,3.23
2017-12-10T15:57:31.384Z,3.10
2017-12-10T15:59:59.086Z,4.53
2017-12-10T16:02:28.303Z,3.07
2017-12-10T16:04:56.244Z,2.37
2017-12-10T16:07:24.739Z,3.60
2017-12-10T16:09:52.552Z,2.67
2017-12-10T16:12:20.572Z,2.30
2017-12-10T16:14:48.643Z,3.03
2017-12-10T16:17:16.575Z,2.37
2017-12-10T16:19:44.276Z,3.97
2017-12-10T16:22:12.040Z,3.07
2017-12-10T16:24:39.763Z,2.73
2017-12-10T16:27:07.580Z,2.27
2017-12-10T16:29:35.643Z,2.43
2017-12-10T16:32:03.714Z,1.83
2017-12-10T17:18:12.740Z,3.73
2017-12-10T17:20:40.418Z,3.03
2017-12-10T17:23:08.126Z,2.73
2017-12-10T17:25:36.032Z,3.57
2017-12-10T17:28:03.791Z,3.03
2017-12-10T17:30:31.824Z,6.03
2017-12-10T17:32:59.509Z,3.43
2017-12-10T17:35:27.174Z,3.33
2017-12-10T17:37:54.877Z,3.07
2017-12-10T17:40:23.316Z,4.37
2017-12-10T17:42:50.980Z,2.97
2017-12-10T17:45:18.695Z,3.63
2017-12-10T17:47:46.417Z,2.60
2017-12-10T17:50:14.158Z,3.80
2017-12-10T17:52:42.229Z,3.20
2017-12-10T17:55:10.075Z,3.33
2017-12-10T17:57:37.963Z,2.10
2017-12-10T18:00:05.645Z,2.20
2017-12-10T18:02:34.269Z,2.77
2017-12-10T18:05:02.449Z,2.63
2017-12-10T18:07:30.656Z,1.93
2017-12-10T18:09:59.625Z,3.37
2017-12-10T18:12:28.470Z,2.23
2017-12-10T18:14:56.942Z,2.40
2017-12-10T18:17:25.443Z,3.47
2017-12-10T18:19:53.517Z,3.20
2017-12-10T18:22:21.296Z,1.13
2017-12-10T18:24:49.350Z,2.60
2017-12-10T18:27:17.126Z,2.53
2017-12-10T18:29:45.307Z,3.90
2017-12-10T18:32:13.011Z,3.10
2017-12-10T18:34:40.722Z,2.97
2017-12-10T18:37:08.444Z,3.57
2017-12-10T18:39:36.956Z,3.53
2017-12-10T18:42:04.648Z,4.20
2017-12-10T18:44:32.376Z,3.13
2017-12-10T18:47:00.056Z,2.47
2017-12-10T18:49:28.453Z,4.77
2017-12-10T18:51:56.393Z,3.60
2017-12-10T18:54:24.139Z,2.40
2017-12-10T18:56:52.176Z,3.30
2017-12-10T18:59:20.677Z,2.27
2017-12-10T19:01:48.372Z,2.33
2017-12-10T19:04:16.767Z,2.93
2017-12-10T19:06:44.920Z,2.93
2017-12-10T19:09:12.894Z,18.23
2017-12-10T19:11:40.621Z,3.93
2017-12-10T19:14:08.956Z,3.90
2017-12-10T19:16:37.844Z,3.27
2017-12-10T19:19:06.663Z,6.60
2017-12-10T19:21:34.908Z,4.33
2017-12-10T19:24:03.973Z,5.77
2017-12-10T19:26:32.461Z,3.17
2017-12-10T19:29:00.475Z,5.27
2017-12-10T19:31:29.901Z,4.33
2017-12-10T19:33:58.829Z,1.23
2017-12-10T19:36:27.306Z,1.60
2017-12-10T19:38:56.504Z,1.30
2017-12-10T19:41:25.274Z,1.87
2017-12-10T19:43:52.967Z,1.20
2017-12-10T19:46:20.700Z,0.77
2017-12-10T19:48:49.388Z,2.33
2017-12-10T19:51:17.307Z,1.47
2017-12-10T19:53:45.808Z,2.87
2017-12-10T19:56:13.533Z,1.37
2017-12-10T19:58:41.570Z,1.30
2017-12-10T20:01:09.396Z,1.70
2017-12-10T20:03:37.490Z,0.97
2017-12-10T20:06:06.056Z,1.07
2017-12-10T20:08:34.731Z,1.80
2017-12-10T20:11:02.781Z,1.20
2017-12-10T20:13:31.108Z,0.70
2017-12-10T20:15:59.198Z,2.97
2017-12-10T20:18:27.221Z,1.40
2017-12-10T20:20:55.088Z,5.60
2017-12-10T20:23:23.265Z,1.93
2017-12-10T20:25:51.279Z,1.90
2017-12-10T20:28:19.407Z,4.67
2017-12-10T20:30:47.081Z,1.50
2017-12-10T20:33:15.972Z,1.20
2017-12-10T20:35:44.323Z,1.30
2017-12-10T20:38:12.079Z,2.33
2017-12-10T20:40:39.830Z,2.00
2017-12-10T20:43:08.295Z,1.20
2017-12-10T20:45:36.137Z,1.30
2017-12-10T20:48:03.820Z,1.27
2017-12-10T20:50:31.565Z,1.63
2017-12-10T20:52:59.368Z,0.60
2017-12-10T20:55:29.375Z,1.57
2017-12-10T20:57:57.745Z,1.23
2017-12-10T21:00:25.966Z,1.47
2017-12-10T21:02:55.872Z,0.53
2017-12-10T21:05:24.568Z,1.20
2017-12-10T21:07:52.794Z,2.67
2017-12-10T21:10:22.002Z,1.20
2017-12-10T21:12:50.680Z,1.40
2017-12-10T21:15:19.149Z,1.67
2017-12-10T21:17:47.249Z,1.53
2017-12-10T21:20:16.043Z,1.10
2017-12-10T21:22:43.757Z,1.00
2017-12-10T21:25:12.097Z,1.40
2017-12-10T21:27:40.108Z,1.30
2017-12-10T21:30:07.865Z,1.77
2017-12-10T21:32:36.336Z,1.43
2017-12-10T21:35:04.130Z,0.80
2017-12-10T21:37:32.919Z,1.33
2017-12-10T21:40:01.483Z,0.93
2017-12-10T21:42:29.166Z,0.73
2017-12-10T21:44:58.192Z,2.13
2017-12-10T21:47:25.892Z,1.60
2017-12-10T21:49:53.888Z,1.80
2017-12-10T21:52:22.434Z,0.97
2017-12-10T21:54:50.119Z,0.83
2017-12-10T21:57:17.839Z,1.00
2017-12-10T21:59:45.903Z,1.30
2017-12-10T22:02:14.928Z,1.10
2017-12-10T22:04:42.924Z,1.23
2017-12-10T22:07:11.488Z,0.90
2017-12-10T22:09:39.152Z,1.27
2017-12-10T22:12:07.162Z,1.20
2017-12-10T22:14:34.840Z,1.13
2017-12-10T22:17:03.239Z,1.57
2017-12-10T22:19:31.261Z,0.90
2017-12-10T22:21:58.959Z,2.07
2017-12-10T22:24:27.337Z,2.10
2017-12-10T22:26:55.088Z,2.53
2017-12-10T22:29:23.080Z,2.80
2017-12-10T22:31:52.382Z,1.60
2017-12-10T22:34:20.431Z,1.93
2017-12-10T22:36:48.017Z,2.00
2017-12-10T22:39:15.686Z,1.90
2017-12-10T22:41:43.387Z,1.80
2017-12-10T22:44:11.707Z,2.03
2017-12-10T22:46:40.101Z,1.87
2017-12-10T22:49:08.430Z,2.33
2017-12-10T22:51:36.836Z,2.50
2017-12-10T22:54:05.952Z,1.57
2017-12-10T22:56:34.325Z,1.83
2017-12-10T22:59:02.652Z,1.53
2017-12-10T23:01:31.133Z,1.73
2017-12-10T23:03:59.459Z,2.37
2017-12-10T23:06:28.088Z,3.57
2017-12-10T23:08:56.487Z,2.07
2017-12-10T23:11:24.808Z,1.67
2017-12-10T23:14:01.767Z,1.50
2017-12-10T23:16:30.248Z,2.10
2017-12-10T23:18:59.286Z,1.90
2017-12-10T23:21:27.933Z,1.83
2017-12-10T23:23:56.565Z,1.53
2017-12-10T23:26:24.260Z,1.50
2017-12-10T23:28:52.387Z,1.60
2017-12-10T23:31:20.042Z,1.73
2017-12-10T23:33:48.596Z,1.67
2017-12-10T23:36:16.260Z,1.47
2017-12-10T23:38:43.947Z,1.47
2017-12-10T23:41:13.066Z,1.70
2017-12-10T23:43:41.408Z,2.00
2017-12-10T23:46:10.509Z,1.40
2017-12-10T23:48:39.666Z,1.77
2017-12-10T23:51:08.001Z,1.30
2017-12-10T23:53:36.341Z,1.50
2017-12-10T23:56:05.453Z,1.67
2017-12-10T23:58:34.533Z,1.60
